| Date | Time | Temp. (oF) | Dew Point (oF) | Rel. Hum. (%) | Press. (in.) | Wind Dir. | Wind Speed (mph) | Hourly Rainfall (in.) |
|
|---|---|---|---|---|---|---|---|---|---|
| 1 | 03/24 | 00:00 | 31 | 2 | 29 | 30.44 | NNW | 2 | 0.00 |
| 2 | 03/23 | 23:00 | 33 | 2 | 27 | 30.43 | NNE | 12 | 0.00 |
| 3 | 03/23 | 22:00 | 35 | 3 | 26 | 30.40 | NNW | 9 | 0.00 |
| 4 | 03/23 | 21:00 | 37 | 4 | 25 | 30.38 | ENE | 5 | 0.00 |
| 5 | 03/23 | 20:00 | 41 | 6 | 24 | 30.33 | NNE | 9 | 0.00 |
| 6 | 03/23 | 19:00 | 44 | 5 | 20 | 30.29 | NNE | 9 | 0.00 |
| 7 | 03/23 | 18:00 | 46 | 7 | 21 | 30.27 | NNW | 10 | 0.00 |
| 8 | 03/23 | 17:00 | 46 | 8 | 22 | 30.28 | N | 14 | 0.00 |
| 9 | 03/23 | 16:00 | 45 | 10 | 24 | 30.29 | NNW | 11 | 0.00 |
| 10 | 03/23 | 15:00 | 43 | 10 | 26 | 30.32 | N | 8 | 0.00 |
| 11 | 03/23 | 14:00 | 43 | 13 | 30 | 30.34 | N | 13 | 0.00 |
| 12 | 03/23 | 13:00 | 40 | 10 | 30 | 30.37 | WNW | 10 | 0.00 |
| 13 | 03/23 | 12:00 | 38 | 10 | 32 | 30.40 | NW | 5 | 0.00 |
| 14 | 03/23 | 11:00 | 35 | 9 | 34 | 30.42 | NNW | 11 | 0.00 |
| 15 | 03/23 | 10:00 | 34 | 10 | 37 | 30.43 | NW | 7 | 0.00 |
| 16 | 03/23 | 09:00 | 32 | 9 | 38 | 30.43 | NNW | 8 | 0.00 |
| 17 | 03/23 | 08:00 | 30 | 9 | 42 | 30.42 | NNW | 8 | 0.00 |
| 18 | 03/23 | 07:00 | 30 | 10 | 44 | 30.41 | N | 4 | 0.00 |
| 19 | 03/23 | 06:00 | 30 | 10 | 43 | 30.40 | N | 5 | 0.00 |
| 20 | 03/23 | 05:00 | 31 | 10 | 42 | 30.38 | NNW | 5 | 0.00 |
| 21 | 03/23 | 04:00 | 33 | 12 | 42 | 30.37 | NNE | 16 | 0.00 |
| 22 | 03/23 | 03:00 | 35 | 17 | 49 | 30.37 | N | 10 | 0.00 |
| 23 | 03/23 | 02:00 | 37 | 23 | 57 | 30.36 | NNE | 8 | 0.00 |
| 24 | 03/23 | 01:00 | 39 | 24 | 55 | 30.34 | N | 8 | 0.00 |